TimeCST,TemperatureF,Dew PointF,Humidity,Sea Level PressureIn,VisibilityMPH,Wind Direction,Wind SpeedMPH,Gust SpeedMPH,PrecipitationIn,Events,Conditions,WindDirDegrees,DateUTC
12:53 AM,44.1,27.0,51,30.02,10.0,South,31.1,43.7,N/A,,Clear,190,2013-01-10 06:53:00
1:53 AM,43.0,27.0,53,30.02,10.0,SSW,26.5,33.4,N/A,,Clear,200,2013-01-10 07:53:00
2:53 AM,44.1,28.0,53,29.99,10.0,SSW,31.1,40.3,N/A,,Clear,200,2013-01-10 08:53:00
3:53 AM,43.0,26.1,51,29.97,10.0,SSW,32.2,46.0,N/A,,Clear,200,2013-01-10 09:53:00
4:53 AM,43.0,25.0,49,29.95,10.0,South,33.4,49.5,N/A,,Clear,190,2013-01-10 10:53:00
5:53 AM,41.0,24.1,51,29.95,10.0,South,32.2,43.7,N/A,,Clear,190,2013-01-10 11:53:00
6:53 AM,39.0,24.1,55,29.94,10.0,South,32.2,41.4,N/A,,Clear,190,2013-01-10 12:53:00
7:53 AM,37.9,24.1,57,29.91,10.0,South,31.1,46.0,N/A,,Clear,190,2013-01-10 13:53:00
8:53 AM,37.9,24.1,57,29.90,10.0,South,28.8,40.3,N/A,,Clear,190,2013-01-10 14:53:00
9:53 AM,41.0,23.0,49,29.87,10.0,South,25.3,36.8,N/A,,Clear,190,2013-01-10 15:53:00
10:53 AM,45.0,21.9,40,29.82,10.0,South,26.5,39.1,N/A,,Clear,190,2013-01-10 16:53:00
11:53 AM,50.0,24.1,36,29.78,10.0,South,32.2,39.1,N/A,,Clear,180,2013-01-10 17:53:00
12:53 PM,52.0,30.0,43,29.74,10.0,South,19.6,25.3,N/A,,Clear,170,2013-01-10 18:53:00
1:53 PM,51.1,32.0,48,29.70,10.0,SSE,11.5,-,N/A,,Clear,160,2013-01-10 19:53:00
2:53 PM,48.9,34.0,56,29.68,10.0,South,13.8,-,N/A,,Scattered Clouds,180,2013-01-10 20:53:00
3:53 PM,48.0,35.1,61,29.65,10.0,SSE,9.2,-,N/A,,Partly Cloudy,160,2013-01-10 21:53:00
4:53 PM,45.0,35.1,68,29.63,10.0,SSE,11.5,-,N/A,,Overcast,150,2013-01-10 22:53:00
5:53 PM,43.0,35.1,74,29.59,10.0,South,16.1,21.9,N/A,,Overcast,170,2013-01-10 23:53:00
6:53 PM,41.0,35.1,79,29.58,10.0,SSE,18.4,25.3,N/A,,Partly Cloudy,160,2013-01-11 00:53:00
7:53 PM,39.9,34.0,79,29.57,10.0,South,17.3,23.0,N/A,,Clear,170,2013-01-11 01:53:00
8:42 PM,39.2,35.6,87,29.50,10.0,South,13.8,25.3,N/A,,Mostly Cloudy,180,2013-01-11 02:42:00
8:53 PM,39.9,35.1,83,29.53,10.0,South,17.3,26.5,N/A,,Overcast,190,2013-01-11 02:53:00
9:21 PM,39.2,35.6,87,29.48,10.0,South,18.4,27.6,N/A,,Scattered Clouds,190,2013-01-11 03:21:00
9:53 PM,39.0,35.1,86,29.49,10.0,SSW,23.0,35.7,N/A,,Clear,200,2013-01-11 03:53:00
10:32 PM,39.2,35.6,87,29.46,10.0,SSW,20.7,28.8,N/A,,Partly Cloudy,200,2013-01-11 04:32:00
10:53 PM,39.0,35.1,86,29.49,10.0,SSW,19.6,32.2,N/A,,Partly Cloudy,200,2013-01-11 04:53:00
11:53 PM,37.9,34.0,86,29.47,10.0,SSW,21.9,31.1,N/A,,Clear,200,2013-01-11 05:53:00